Knights Landing, California
Current Conditions -  °F | °C
As of 6:07 AM on Friday 24 Oct 2014 (Local Time) from KSMF Reporting Station
Light Fog Light Fog  
Wind Chill: 45°   Ceiling: Unl
Heat Index: 45°   Visibility: 5mi
Dew Point: 43°   Wind: 0mph
Humidity: 93%   Direction: NA
Pressure: 29.96"   Gusts: NA
Location:  38.8°N, 121.72°W
Report Text: KSMF 241307Z 00000KT 5SM BR MIFG SCT001 07/06 A2996 RMK AO2
Loading
Personal Weather Stations






























Interactive Weather Map
Tropical Storm Tracking
New forecast layout! Learn more

10-Day Weather Forecast

Advertisements
Track Severe Weather on mobile